sensor_id;sensor_type;location;lat;lon;timestamp;P1;durP1;ratioP1;P2;durP2;ratioP2
45905;SDS011;31619;49.008;12.106;2023-04-15T00:00:08;7.20;;;6.50;;
45905;SDS011;31619;49.008;12.106;2023-04-15T00:02:34;6.57;;;6.07;;
45905;SDS011;31619;49.008;12.106;2023-04-15T00:05:01;6.63;;;6.03;;
45905;SDS011;31619;49.008;12.106;2023-04-15T00:07:26;6.95;;;6.35;;
45905;SDS011;31619;49.008;12.106;2023-04-15T00:09:53;6.75;;;6.15;;
45905;SDS011;31619;49.008;12.106;2023-04-15T00:12:21;6.80;;;6.20;;
45905;SDS011;31619;49.008;12.106;2023-04-15T00:14:47;7.03;;;6.43;;
45905;SDS011;31619;49.008;12.106;2023-04-15T00:17:14;6.97;;;6.20;;
45905;SDS011;31619;49.008;12.106;2023-04-15T00:19:39;7.65;;;6.60;;
45905;SDS011;31619;49.008;12.106;2023-04-15T00:22:05;7.00;;;6.45;;
45905;SDS011;31619;49.008;12.106;2023-04-15T00:24:32;7.25;;;6.65;;
45905;SDS011;31619;49.008;12.106;2023-04-15T00:26:58;7.28;;;6.68;;
45905;SDS011;31619;49.008;12.106;2023-04-15T00:29:24;7.80;;;7.10;;
45905;SDS011;31619;49.008;12.106;2023-04-15T00:31:50;6.90;;;6.32;;
45905;SDS011;31619;49.008;12.106;2023-04-15T00:34:15;6.47;;;5.93;;
45905;SDS011;31619;49.008;12.106;2023-04-15T00:36:41;6.78;;;6.28;;
45905;SDS011;31619;49.008;12.106;2023-04-15T00:39:07;6.90;;;6.22;;
45905;SDS011;31619;49.008;12.106;2023-04-15T00:41:32;7.10;;;6.50;;
45905;SDS011;31619;49.008;12.106;2023-04-15T00:43:58;6.57;;;6.07;;
45905;SDS011;31619;49.008;12.106;2023-04-15T00:46:27;6.28;;;5.78;;
45905;SDS011;31619;49.008;12.106;2023-04-15T00:48:53;5.78;;;5.38;;
45905;SDS011;31619;49.008;12.106;2023-04-15T00:51:19;6.03;;;5.53;;
45905;SDS011;31619;49.008;12.106;2023-04-15T00:53:45;5.85;;;5.35;;
45905;SDS011;31619;49.008;12.106;2023-04-15T00:56:10;6.57;;;6.07;;
45905;SDS011;31619;49.008;12.106;2023-04-15T00:58:36;5.65;;;5.25;;
45905;SDS011;31619;49.008;12.106;2023-04-15T01:01:02;6.05;;;5.55;;
45905;SDS011;31619;49.008;12.106;2023-04-15T01:03:28;5.97;;;5.47;;
45905;SDS011;31619;49.008;12.106;2023-04-15T01:05:54;5.25;;;4.80;;
45905;SDS011;31619;49.008;12.106;2023-04-15T01:08:25;5.03;;;4.63;;
45905;SDS011;31619;49.008;12.106;2023-04-15T01:10:55;6.05;;;5.65;;
45905;SDS011;31619;49.008;12.106;2023-04-15T01:13:22;5.28;;;4.88;;
45905;SDS011;31619;49.008;12.106;2023-04-15T01:15:48;5.38;;;4.40;;
45905;SDS011;31619;49.008;12.106;2023-04-15T01:18:15;6.00;;;5.50;;
45905;SDS011;31619;49.008;12.106;2023-04-15T01:20:42;5.88;;;5.38;;
45905;SDS011;31619;49.008;12.106;2023-04-15T01:23:07;5.38;;;4.72;;
45905;SDS011;31619;49.008;12.106;2023-04-15T01:25:34;6.20;;;5.30;;
45905;SDS011;31619;49.008;12.106;2023-04-15T01:27:59;5.80;;;5.13;;
45905;SDS011;31619;49.008;12.106;2023-04-15T01:30:26;5.70;;;5.25;;
45905;SDS011;31619;49.008;12.106;2023-04-15T01:32:52;5.35;;;4.95;;
45905;SDS011;31619;49.008;12.106;2023-04-15T01:35:18;6.03;;;5.47;;
45905;SDS011;31619;49.008;12.106;2023-04-15T01:37:43;6.15;;;5.63;;
45905;SDS011;31619;49.008;12.106;2023-04-15T01:40:10;5.85;;;5.35;;
45905;SDS011;31619;49.008;12.106;2023-04-15T01:42:36;5.65;;;5.25;;
45905;SDS011;31619;49.008;12.106;2023-04-15T01:45:02;6.53;;;6.03;;
45905;SDS011;31619;49.008;12.106;2023-04-15T01:47:28;6.85;;;6.25;;
45905;SDS011;31619;49.008;12.106;2023-04-15T01:49:54;5.80;;;5.40;;
45905;SDS011;31619;49.008;12.106;2023-04-15T01:52:20;5.90;;;5.50;;
45905;SDS011;31619;49.008;12.106;2023-04-15T01:54:45;6.35;;;5.85;;
45905;SDS011;31619;49.008;12.106;2023-04-15T01:57:11;5.57;;;5.18;;
45905;SDS011;31619;49.008;12.106;2023-04-15T01:59:37;6.40;;;5.85;;
45905;SDS011;31619;49.008;12.106;2023-04-15T02:02:03;6.60;;;5.88;;
45905;SDS011;31619;49.008;12.106;2023-04-15T02:04:29;6.25;;;5.65;;
45905;SDS011;31619;49.008;12.106;2023-04-15T02:06:55;6.07;;;5.57;;
45905;SDS011;31619;49.008;12.106;2023-04-15T02:09:21;6.03;;;5.63;;
45905;SDS011;31619;49.008;12.106;2023-04-15T02:11:46;6.45;;;5.95;;
45905;SDS011;31619;49.008;12.106;2023-04-15T02:14:12;5.95;;;5.45;;
45905;SDS011;31619;49.008;12.106;2023-04-15T02:16:38;6.75;;;6.25;;
45905;SDS011;31619;49.008;12.106;2023-04-15T02:19:04;6.18;;;5.68;;
45905;SDS011;31619;49.008;12.106;2023-04-15T02:21:30;6.15;;;5.72;;
45905;SDS011;31619;49.008;12.106;2023-04-15T02:23:55;6.68;;;6.07;;
45905;SDS011;31619;49.008;12.106;2023-04-15T02:26:21;6.60;;;6.10;;
45905;SDS011;31619;49.008;12.106;2023-04-15T02:28:47;6.03;;;5.53;;
45905;SDS011;31619;49.008;12.106;2023-04-15T02:31:15;5.70;;;5.30;;
45905;SDS011;31619;49.008;12.106;2023-04-15T02:33:41;6.30;;;5.80;;
45905;SDS011;31619;49.008;12.106;2023-04-15T02:36:07;5.75;;;5.25;;
45905;SDS011;31619;49.008;12.106;2023-04-15T02:38:34;6.10;;;5.60;;
45905;SDS011;31619;49.008;12.106;2023-04-15T02:40:59;6.53;;;6.03;;
45905;SDS011;31619;49.008;12.106;2023-04-15T02:43:25;6.32;;;5.82;;
45905;SDS011;31619;49.008;12.106;2023-04-15T02:45:51;7.15;;;6.55;;
45905;SDS011;31619;49.008;12.106;2023-04-15T02:48:17;6.50;;;6.00;;
45905;SDS011;31619;49.008;12.106;2023-04-15T02:50:44;7.20;;;6.53;;
45905;SDS011;31619;49.008;12.106;2023-04-15T02:53:10;7.65;;;7.05;;
45905;SDS011;31619;49.008;12.106;2023-04-15T02:55:37;7.43;;;6.90;;
45905;SDS011;31619;49.008;12.106;2023-04-15T02:58:03;7.88;;;7.20;;
45905;SDS011;31619;49.008;12.106;2023-04-15T03:00:28;9.13;;;8.20;;
45905;SDS011;31619;49.008;12.106;2023-04-15T03:03:03;9.05;;;8.23;;
45905;SDS011;31619;49.008;12.106;2023-04-15T03:05:29;8.98;;;8.00;;
45905;SDS011;31619;49.008;12.106;2023-04-15T03:07:55;9.40;;;8.00;;
45905;SDS011;31619;49.008;12.106;2023-04-15T03:10:21;9.60;;;8.27;;
45905;SDS011;31619;49.008;12.106;2023-04-15T03:12:47;8.23;;;7.40;;
45905;SDS011;31619;49.008;12.106;2023-04-15T03:15:13;9.35;;;8.45;;
45905;SDS011;31619;49.008;12.106;2023-04-15T03:17:38;9.48;;;8.55;;
45905;SDS011;31619;49.008;12.106;2023-04-15T03:20:04;10.90;;;9.68;;
45905;SDS011;31619;49.008;12.106;2023-04-15T03:22:31;10.10;;;9.13;;
45905;SDS011;31619;49.008;12.106;2023-04-15T03:24:57;11.70;;;9.25;;
45905;SDS011;31619;49.008;12.106;2023-04-15T03:27:23;9.88;;;8.98;;
45905;SDS011;31619;49.008;12.106;2023-04-15T03:29:49;10.02;;;9.02;;
45905;SDS011;31619;49.008;12.106;2023-04-15T03:32:14;10.38;;;9.38;;
45905;SDS011;31619;49.008;12.106;2023-04-15T03:34:40;9.65;;;8.70;;
45905;SDS011;31619;49.008;12.106;2023-04-15T03:37:06;10.25;;;9.35;;
45905;SDS011;31619;49.008;12.106;2023-04-15T03:39:32;10.15;;;9.20;;
45905;SDS011;31619;49.008;12.106;2023-04-15T03:41:58;9.93;;;8.95;;
45905;SDS011;31619;49.008;12.106;2023-04-15T03:44:25;12.02;;;9.45;;
45905;SDS011;31619;49.008;12.106;2023-04-15T03:46:51;11.88;;;10.57;;
45905;SDS011;31619;49.008;12.106;2023-04-15T03:49:16;29.05;;;11.77;;
45905;SDS011;31619;49.008;12.106;2023-04-15T03:51:43;11.00;;;9.77;;
45905;SDS011;31619;49.008;12.106;2023-04-15T03:54:09;36.70;;;12.23;;
45905;SDS011;31619;49.008;12.106;2023-04-15T03:56:35;10.88;;;9.88;;
45905;SDS011;31619;49.008;12.106;2023-04-15T03:59:01;12.82;;;11.20;;
45905;SDS011;31619;49.008;12.106;2023-04-15T04:01:26;14.40;;;11.45;;
45905;SDS011;31619;49.008;12.106;2023-04-15T04:03:52;17.27;;;13.23;;
45905;SDS011;31619;49.008;12.106;2023-04-15T04:06:17;14.52;;;13.02;;
45905;SDS011;31619;49.008;12.106;2023-04-15T04:08:43;21.33;;;14.77;;
45905;SDS011;31619;49.008;12.106;2023-04-15T04:11:09;16.00;;;13.57;;
45905;SDS011;31619;49.008;12.106;2023-04-15T04:13:35;18.33;;;14.68;;
45905;SDS011;31619;49.008;12.106;2023-04-15T04:16:00;18.58;;;15.65;;
45905;SDS011;31619;49.008;12.106;2023-04-15T04:18:26;16.58;;;14.88;;
45905;SDS011;31619;49.008;12.106;2023-04-15T04:20:52;22.17;;;15.45;;
45905;SDS011;31619;49.008;12.106;2023-04-15T04:23:17;17.73;;;15.73;;
45905;SDS011;31619;49.008;12.106;2023-04-15T04:25:43;18.10;;;15.80;;
45905;SDS011;31619;49.008;12.106;2023-04-15T04:28:09;18.08;;;14.82;;
45905;SDS011;31619;49.008;12.106;2023-04-15T04:30:35;24.95;;;15.10;;
45905;SDS011;31619;49.008;12.106;2023-04-15T04:33:02;18.27;;;13.82;;
45905;SDS011;31619;49.008;12.106;2023-04-15T04:35:27;17.80;;;14.35;;
45905;SDS011;31619;49.008;12.106;2023-04-15T04:37:53;16.10;;;14.40;;
45905;SDS011;31619;49.008;12.106;2023-04-15T04:40:18;17.40;;;14.45;;
45905;SDS011;31619;49.008;12.106;2023-04-15T04:42:44;16.85;;;14.48;;
45905;SDS011;31619;49.008;12.106;2023-04-15T04:45:10;18.70;;;14.68;;
45905;SDS011;31619;49.008;12.106;2023-04-15T04:47:36;27.85;;;16.38;;
45905;SDS011;31619;49.008;12.106;2023-04-15T04:50:01;16.63;;;14.75;;
45905;SDS011;31619;49.008;12.106;2023-04-15T04:52:27;17.13;;;14.60;;
45905;SDS011;31619;49.008;12.106;2023-04-15T04:54:53;18.38;;;15.68;;
45905;SDS011;31619;49.008;12.106;2023-04-15T04:57:18;19.83;;;15.48;;
45905;SDS011;31619;49.008;12.106;2023-04-15T04:59:44;18.75;;;15.63;;
45905;SDS011;31619;49.008;12.106;2023-04-15T05:02:09;17.23;;;15.25;;
45905;SDS011;31619;49.008;12.106;2023-04-15T05:04:35;17.15;;;14.32;;
45905;SDS011;31619;49.008;12.106;2023-04-15T05:07:01;19.38;;;14.75;;
45905;SDS011;31619;49.008;12.106;2023-04-15T05:09:26;20.83;;;13.75;;
45905;SDS011;31619;49.008;12.106;2023-04-15T05:11:52;16.73;;;14.52;;
45905;SDS011;31619;49.008;12.106;2023-04-15T05:14:18;16.42;;;14.63;;
45905;SDS011;31619;49.008;12.106;2023-04-15T05:16:43;16.65;;;14.88;;
45905;SDS011;31619;49.008;12.106;2023-04-15T05:19:09;16.98;;;15.13;;
45905;SDS011;31619;49.008;12.106;2023-04-15T05:21:35;17.20;;;14.32;;
45905;SDS011;31619;49.008;12.106;2023-04-15T05:24:01;18.80;;;13.65;;
45905;SDS011;31619;49.008;12.106;2023-04-15T05:26:26;17.35;;;14.02;;
45905;SDS011;31619;49.008;12.106;2023-04-15T05:28:52;18.35;;;14.30;;
45905;SDS011;31619;49.008;12.106;2023-04-15T05:31:18;17.42;;;15.18;;
45905;SDS011;31619;49.008;12.106;2023-04-15T05:33:43;15.45;;;13.90;;
45905;SDS011;31619;49.008;12.106;2023-04-15T05:36:09;15.05;;;13.55;;
45905;SDS011;31619;49.008;12.106;2023-04-15T05:38:36;17.05;;;14.13;;
45905;SDS011;31619;49.008;12.106;2023-04-15T05:41:01;14.90;;;12.95;;
45905;SDS011;31619;49.008;12.106;2023-04-15T05:43:27;13.40;;;12.00;;
45905;SDS011;31619;49.008;12.106;2023-04-15T05:45:52;14.27;;;12.68;;
45905;SDS011;31619;49.008;12.106;2023-04-15T05:48:18;12.32;;;11.13;;
45905;SDS011;31619;49.008;12.106;2023-04-15T05:50:44;11.70;;;10.27;;
45905;SDS011;31619;49.008;12.106;2023-04-15T05:53:09;10.85;;;9.82;;
45905;SDS011;31619;49.008;12.106;2023-04-15T05:55:35;12.02;;;10.73;;
45905;SDS011;31619;49.008;12.106;2023-04-15T05:58:01;10.20;;;9.15;;
45905;SDS011;31619;49.008;12.106;2023-04-15T06:00:27;10.27;;;9.32;;
45905;SDS011;31619;49.008;12.106;2023-04-15T06:02:53;10.82;;;9.77;;
45905;SDS011;31619;49.008;12.106;2023-04-15T06:05:20;11.18;;;10.07;;
45905;SDS011;31619;49.008;12.106;2023-04-15T06:07:46;9.52;;;8.68;;
45905;SDS011;31619;49.008;12.106;2023-04-15T06:10:11;10.77;;;8.98;;
45905;SDS011;31619;49.008;12.106;2023-04-15T06:12:37;10.25;;;9.27;;
45905;SDS011;31619;49.008;12.106;2023-04-15T06:15:02;9.85;;;8.85;;
45905;SDS011;31619;49.008;12.106;2023-04-15T06:17:30;9.68;;;8.73;;
45905;SDS011;31619;49.008;12.106;2023-04-15T06:19:56;9.25;;;8.45;;
45905;SDS011;31619;49.008;12.106;2023-04-15T06:22:21;10.07;;;8.93;;
45905;SDS011;31619;49.008;12.106;2023-04-15T06:24:48;9.02;;;7.10;;
45905;SDS011;31619;49.008;12.106;2023-04-15T06:27:17;8.48;;;7.53;;
45905;SDS011;31619;49.008;12.106;2023-04-15T06:29:42;7.38;;;6.75;;
45905;SDS011;31619;49.008;12.106;2023-04-15T06:32:08;7.43;;;6.82;;
45905;SDS011;31619;49.008;12.106;2023-04-15T06:34:34;8.35;;;7.65;;
45905;SDS011;31619;49.008;12.106;2023-04-15T06:37:00;8.27;;;7.47;;
45905;SDS011;31619;49.008;12.106;2023-04-15T06:39:26;7.70;;;7.07;;
45905;SDS011;31619;49.008;12.106;2023-04-15T06:41:51;9.10;;;8.20;;
45905;SDS011;31619;49.008;12.106;2023-04-15T06:44:17;7.00;;;6.40;;
45905;SDS011;31619;49.008;12.106;2023-04-15T06:46:43;7.72;;;7.07;;
45905;SDS011;31619;49.008;12.106;2023-04-15T06:49:09;10.93;;;7.32;;
45905;SDS011;31619;49.008;12.106;2023-04-15T06:51:35;7.25;;;6.60;;
45905;SDS011;31619;49.008;12.106;2023-04-15T06:54:01;6.78;;;6.18;;
45905;SDS011;31619;49.008;12.106;2023-04-15T06:56:29;7.28;;;6.65;;
45905;SDS011;31619;49.008;12.106;2023-04-15T06:58:58;7.75;;;7.00;;
45905;SDS011;31619;49.008;12.106;2023-04-15T07:01:23;6.43;;;5.90;;
45905;SDS011;31619;49.008;12.106;2023-04-15T07:03:49;7.82;;;6.93;;
45905;SDS011;31619;49.008;12.106;2023-04-15T07:06:15;7.88;;;6.45;;
45905;SDS011;31619;49.008;12.106;2023-04-15T07:08:41;6.95;;;6.30;;
45905;SDS011;31619;49.008;12.106;2023-04-15T07:11:07;7.28;;;6.63;;
45905;SDS011;31619;49.008;12.106;2023-04-15T07:13:32;7.45;;;6.78;;
45905;SDS011;31619;49.008;12.106;2023-04-15T07:15:58;6.45;;;5.95;;
45905;SDS011;31619;49.008;12.106;2023-04-15T07:18:24;5.57;;;5.13;;
45905;SDS011;31619;49.008;12.106;2023-04-15T07:20:50;5.63;;;5.22;;
45905;SDS011;31619;49.008;12.106;2023-04-15T07:23:15;6.75;;;5.55;;
45905;SDS011;31619;49.008;12.106;2023-04-15T07:25:41;5.50;;;5.10;;
45905;SDS011;31619;49.008;12.106;2023-04-15T07:28:06;5.57;;;5.10;;
45905;SDS011;31619;49.008;12.106;2023-04-15T07:30:32;5.40;;;5.00;;
45905;SDS011;31619;49.008;12.106;2023-04-15T07:32:58;5.43;;;5.03;;
45905;SDS011;31619;49.008;12.106;2023-04-15T07:35:24;4.70;;;4.32;;
45905;SDS011;31619;49.008;12.106;2023-04-15T07:37:50;5.72;;;4.80;;
45905;SDS011;31619;49.008;12.106;2023-04-15T07:40:16;5.80;;;4.88;;
45905;SDS011;31619;49.008;12.106;2023-04-15T07:42:42;5.78;;;5.28;;
45905;SDS011;31619;49.008;12.106;2023-04-15T07:45:07;4.93;;;4.55;;
45905;SDS011;31619;49.008;12.106;2023-04-15T07:47:33;5.00;;;4.63;;
45905;SDS011;31619;49.008;12.106;2023-04-15T07:49:59;5.55;;;5.13;;
45905;SDS011;31619;49.008;12.106;2023-04-15T07:52:26;5.65;;;5.05;;
45905;SDS011;31619;49.008;12.106;2023-04-15T07:54:52;5.53;;;5.13;;
45905;SDS011;31619;49.008;12.106;2023-04-15T07:57:17;5.68;;;5.28;;
45905;SDS011;31619;49.008;12.106;2023-04-15T07:59:43;5.63;;;5.22;;
45905;SDS011;31619;49.008;12.106;2023-04-15T08:02:09;4.80;;;4.43;;
45905;SDS011;31619;49.008;12.106;2023-04-15T08:04:35;4.85;;;4.55;;
45905;SDS011;31619;49.008;12.106;2023-04-15T08:07:01;5.25;;;4.80;;
45905;SDS011;31619;49.008;12.106;2023-04-15T08:09:28;5.40;;;4.90;;
45905;SDS011;31619;49.008;12.106;2023-04-15T08:11:54;12.07;;;5.35;;
45905;SDS011;31619;49.008;12.106;2023-04-15T08:14:21;5.18;;;4.78;;
45905;SDS011;31619;49.008;12.106;2023-04-15T08:16:46;5.53;;;5.13;;
45905;SDS011;31619;49.008;12.106;2023-04-15T08:19:12;5.00;;;4.68;;
45905;SDS011;31619;49.008;12.106;2023-04-15T08:21:38;5.20;;;4.90;;
45905;SDS011;31619;49.008;12.106;2023-04-15T08:24:04;5.13;;;4.63;;
45905;SDS011;31619;49.008;12.106;2023-04-15T08:26:31;5.38;;;4.88;;
45905;SDS011;31619;49.008;12.106;2023-04-15T08:28:56;5.10;;;4.60;;
45905;SDS011;31619;49.008;12.106;2023-04-15T08:31:22;4.78;;;4.38;;
45905;SDS011;31619;49.008;12.106;2023-04-15T08:33:50;4.63;;;4.32;;
45905;SDS011;31619;49.008;12.106;2023-04-15T08:36:17;4.38;;;4.05;;
45905;SDS011;31619;49.008;12.106;2023-04-15T08:38:43;4.57;;;4.28;;
45905;SDS011;31619;49.008;12.106;2023-04-15T08:44:18;4.38;;;4.07;;
45905;SDS011;31619;49.008;12.106;2023-04-15T08:46:45;3.78;;;3.47;;
45905;SDS011;31619;49.008;12.106;2023-04-15T08:49:12;3.83;;;3.63;;
45905;SDS011;31619;49.008;12.106;2023-04-15T08:51:38;3.85;;;3.60;;
45905;SDS011;31619;49.008;12.106;2023-04-15T08:54:04;3.58;;;3.38;;
45905;SDS011;31619;49.008;12.106;2023-04-15T08:56:32;3.33;;;3.08;;
45905;SDS011;31619;49.008;12.106;2023-04-15T08:58:59;3.83;;;3.53;;
45905;SDS011;31619;49.008;12.106;2023-04-15T09:01:25;3.13;;;2.92;;
45905;SDS011;31619;49.008;12.106;2023-04-15T09:03:51;3.78;;;3.55;;
45905;SDS011;31619;49.008;12.106;2023-04-15T09:06:22;3.40;;;3.20;;
45905;SDS011;31619;49.008;12.106;2023-04-15T09:08:50;3.13;;;2.92;;
45905;SDS011;31619;49.008;12.106;2023-04-15T09:11:16;4.60;;;3.00;;
45905;SDS011;31619;49.008;12.106;2023-04-15T09:13:42;3.17;;;2.97;;
45905;SDS011;31619;49.008;12.106;2023-04-15T09:16:07;3.22;;;3.03;;
45905;SDS011;31619;49.008;12.106;2023-04-15T09:18:34;3.15;;;2.95;;
45905;SDS011;31619;49.008;12.106;2023-04-15T09:21:08;3.38;;;3.17;;
45905;SDS011;31619;49.008;12.106;2023-04-15T09:23:52;3.25;;;3.05;;
45905;SDS011;31619;49.008;12.106;2023-04-15T09:26:31;3.25;;;3.05;;
45905;SDS011;31619;49.008;12.106;2023-04-15T09:29:04;3.28;;;3.08;;
45905;SDS011;31619;49.008;12.106;2023-04-15T09:31:30;3.35;;;3.05;;
45905;SDS011;31619;49.008;12.106;2023-04-15T09:33:56;3.03;;;2.83;;
45905;SDS011;31619;49.008;12.106;2023-04-15T09:36:21;2.70;;;2.50;;
45905;SDS011;31619;49.008;12.106;2023-04-15T09:38:55;2.80;;;2.67;;
45905;SDS011;31619;49.008;12.106;2023-04-15T09:41:22;3.08;;;2.90;;
45905;SDS011;31619;49.008;12.106;2023-04-15T09:43:48;2.45;;;2.33;;
45905;SDS011;31619;49.008;12.106;2023-04-15T09:46:14;3.50;;;3.20;;
45905;SDS011;31619;49.008;12.106;2023-04-15T09:48:40;3.10;;;2.90;;
45905;SDS011;31619;49.008;12.106;2023-04-15T09:51:05;2.15;;;2.05;;
45905;SDS011;31619;49.008;12.106;2023-04-15T09:53:33;7.18;;;2.70;;
45905;SDS011;31619;49.008;12.106;2023-04-15T09:56:00;2.10;;;2.00;;
45905;SDS011;31619;49.008;12.106;2023-04-15T09:58:30;2.85;;;2.55;;
45905;SDS011;31619;49.008;12.106;2023-04-15T10:00:58;2.55;;;2.45;;
45905;SDS011;31619;49.008;12.106;2023-04-15T10:03:29;2.47;;;2.28;;
45905;SDS011;31619;49.008;12.106;2023-04-15T10:05:57;2.20;;;2.10;;
45905;SDS011;31619;49.008;12.106;2023-04-15T10:08:28;2.13;;;2.03;;
45905;SDS011;31619;49.008;12.106;2023-04-15T10:10:54;2.38;;;2.28;;
45905;SDS011;31619;49.008;12.106;2023-04-15T10:13:22;2.25;;;2.15;;
45905;SDS011;31619;49.008;12.106;2023-04-15T10:15:50;2.60;;;2.40;;
45905;SDS011;31619;49.008;12.106;2023-04-15T10:18:24;3.50;;;2.42;;
45905;SDS011;31619;49.008;12.106;2023-04-15T10:20:51;2.28;;;2.17;;
45905;SDS011;31619;49.008;12.106;2023-04-15T10:23:17;2.25;;;2.15;;
45905;SDS011;31619;49.008;12.106;2023-04-15T10:25:45;2.22;;;2.10;;
45905;SDS011;31619;49.008;12.106;2023-04-15T10:28:11;2.80;;;2.60;;
45905;SDS011;31619;49.008;12.106;2023-04-15T10:30:37;2.40;;;2.30;;
45905;SDS011;31619;49.008;12.106;2023-04-15T10:33:03;2.50;;;2.35;;
45905;SDS011;31619;49.008;12.106;2023-04-15T10:35:30;2.10;;;2.00;;
45905;SDS011;31619;49.008;12.106;2023-04-15T10:37:57;2.30;;;2.20;;
45905;SDS011;31619;49.008;12.106;2023-04-15T10:40:30;1.98;;;1.88;;
45905;SDS011;31619;49.008;12.106;2023-04-15T10:42:57;2.20;;;1.83;;
45905;SDS011;31619;49.008;12.106;2023-04-15T10:45:24;2.28;;;2.17;;
45905;SDS011;31619;49.008;12.106;2023-04-15T10:47:54;3.00;;;2.70;;
45905;SDS011;31619;49.008;12.106;2023-04-15T10:50:21;2.00;;;1.90;;
45905;SDS011;31619;49.008;12.106;2023-04-15T10:52:49;1.63;;;1.60;;
45905;SDS011;31619;49.008;12.106;2023-04-15T10:55:21;2.35;;;2.15;;
45905;SDS011;31619;49.008;12.106;2023-04-15T10:57:55;1.13;;;1.13;;
45905;SDS011;31619;49.008;12.106;2023-04-15T11:00:25;1.25;;;1.25;;
45905;SDS011;31619;49.008;12.106;2023-04-15T11:02:56;1.58;;;1.48;;
45905;SDS011;31619;49.008;12.106;2023-04-15T11:08:06;1.30;;;1.30;;
45905;SDS011;31619;49.008;12.106;2023-04-15T11:13:02;0.98;;;0.98;;
45905;SDS011;31619;49.008;12.106;2023-04-15T11:20:42;0.90;;;0.90;;
45905;SDS011;31619;49.008;12.106;2023-04-15T11:23:09;0.80;;;0.80;;
45905;SDS011;31619;49.008;12.106;2023-04-15T11:25:35;1.10;;;1.00;;
45905;SDS011;31619;49.008;12.106;2023-04-15T11:28:02;0.65;;;0.65;;
45905;SDS011;31619;49.008;12.106;2023-04-15T11:30:29;0.90;;;0.90;;
45905;SDS011;31619;49.008;12.106;2023-04-15T11:32:58;1.05;;;0.90;;
45905;SDS011;31619;49.008;12.106;2023-04-15T11:35:25;1.33;;;1.33;;
45905;SDS011;31619;49.008;12.106;2023-04-15T11:37:51;1.65;;;1.17;;
45905;SDS011;31619;49.008;12.106;2023-04-15T11:40:27;1.23;;;1.23;;
45905;SDS011;31619;49.008;12.106;2023-04-15T11:43:13;1.23;;;1.23;;
45905;SDS011;31619;49.008;12.106;2023-04-15T11:48:21;1.20;;;1.20;;
45905;SDS011;31619;49.008;12.106;2023-04-15T11:50:55;0.85;;;0.85;;
45905;SDS011;31619;49.008;12.106;2023-04-15T11:53:35;0.75;;;0.75;;
45905;SDS011;31619;49.008;12.106;2023-04-15T11:56:03;0.60;;;0.60;;
45905;SDS011;31619;49.008;12.106;2023-04-15T11:58:30;0.50;;;0.50;;
45905;SDS011;31619;49.008;12.106;2023-04-15T12:00:56;1.00;;;1.00;;
45905;SDS011;31619;49.008;12.106;2023-04-15T12:03:27;1.20;;;1.20;;
45905;SDS011;31619;49.008;12.106;2023-04-15T12:11:31;0.75;;;0.75;;
45905;SDS011;31619;49.008;12.106;2023-04-15T12:14:06;0.70;;;0.70;;
45905;SDS011;31619;49.008;12.106;2023-04-15T12:17:03;0.70;;;0.70;;
45905;SDS011;31619;49.008;12.106;2023-04-15T12:19:36;1.00;;;1.00;;
45905;SDS011;31619;49.008;12.106;2023-04-15T12:22:04;0.85;;;0.85;;
45905;SDS011;31619;49.008;12.106;2023-04-15T12:24:33;0.88;;;0.88;;
45905;SDS011;31619;49.008;12.106;2023-04-15T12:27:01;1.00;;;1.00;;
45905;SDS011;31619;49.008;12.106;2023-04-15T12:29:28;0.88;;;0.88;;
45905;SDS011;31619;49.008;12.106;2023-04-15T12:31:55;1.60;;;1.27;;
45905;SDS011;31619;49.008;12.106;2023-04-15T12:34:30;0.90;;;0.90;;
45905;SDS011;31619;49.008;12.106;2023-04-15T12:36:58;1.00;;;1.00;;
45905;SDS011;31619;49.008;12.106;2023-04-15T12:39:25;0.70;;;0.70;;
45905;SDS011;31619;49.008;12.106;2023-04-15T12:41:53;1.75;;;0.90;;
45905;SDS011;31619;49.008;12.106;2023-04-15T12:44:21;1.02;;;1.02;;
45905;SDS011;31619;49.008;12.106;2023-04-15T12:46:48;0.93;;;0.93;;
45905;SDS011;31619;49.008;12.106;2023-04-15T12:49:14;1.00;;;1.00;;
45905;SDS011;31619;49.008;12.106;2023-04-15T12:51:40;1.13;;;1.13;;
45905;SDS011;31619;49.008;12.106;2023-04-15T12:54:06;1.10;;;1.10;;
45905;SDS011;31619;49.008;12.106;2023-04-15T12:56:32;0.98;;;0.98;;
45905;SDS011;31619;49.008;12.106;2023-04-15T12:58:57;1.00;;;1.00;;
45905;SDS011;31619;49.008;12.106;2023-04-15T13:01:23;1.20;;;1.20;;
45905;SDS011;31619;49.008;12.106;2023-04-15T13:03:48;1.35;;;1.35;;
45905;SDS011;31619;49.008;12.106;2023-04-15T13:06:15;1.38;;;1.27;;
45905;SDS011;31619;49.008;12.106;2023-04-15T13:08:41;1.05;;;1.02;;
45905;SDS011;31619;49.008;12.106;2023-04-15T13:11:07;0.88;;;0.88;;
45905;SDS011;31619;49.008;12.106;2023-04-15T13:13:32;1.00;;;1.00;;
45905;SDS011;31619;49.008;12.106;2023-04-15T13:15:58;1.13;;;1.13;;
45905;SDS011;31619;49.008;12.106;2023-04-15T13:18:24;1.00;;;1.00;;
45905;SDS011;31619;49.008;12.106;2023-04-15T13:20:50;1.23;;;1.23;;
45905;SDS011;31619;49.008;12.106;2023-04-15T13:23:15;1.10;;;1.10;;
45905;SDS011;31619;49.008;12.106;2023-04-15T13:25:41;1.88;;;1.30;;
45905;SDS011;31619;49.008;12.106;2023-04-15T13:28:07;1.10;;;1.10;;
45905;SDS011;31619;49.008;12.106;2023-04-15T13:30:36;1.50;;;1.40;;
45905;SDS011;31619;49.008;12.106;2023-04-15T13:33:02;1.35;;;1.35;;
45905;SDS011;31619;49.008;12.106;2023-04-15T13:35:28;3.03;;;1.55;;
45905;SDS011;31619;49.008;12.106;2023-04-15T13:37:53;1.60;;;1.60;;
45905;SDS011;31619;49.008;12.106;2023-04-15T13:40:20;1.15;;;1.15;;
45905;SDS011;31619;49.008;12.106;2023-04-15T13:42:45;1.70;;;1.70;;
45905;SDS011;31619;49.008;12.106;2023-04-15T13:45:11;1.40;;;1.40;;
45905;SDS011;31619;49.008;12.106;2023-04-15T13:47:37;1.50;;;1.50;;
45905;SDS011;31619;49.008;12.106;2023-04-15T13:50:03;1.30;;;1.30;;
45905;SDS011;31619;49.008;12.106;2023-04-15T13:52:29;1.73;;;1.58;;
45905;SDS011;31619;49.008;12.106;2023-04-15T13:54:55;1.80;;;1.70;;
45905;SDS011;31619;49.008;12.106;2023-04-15T13:57:20;1.60;;;1.60;;
45905;SDS011;31619;49.008;12.106;2023-04-15T13:59:46;2.05;;;1.95;;
45905;SDS011;31619;49.008;12.106;2023-04-15T14:02:11;2.45;;;1.80;;
45905;SDS011;31619;49.008;12.106;2023-04-15T14:04:37;1.77;;;1.67;;
45905;SDS011;31619;49.008;12.106;2023-04-15T14:07:03;1.80;;;1.80;;
45905;SDS011;31619;49.008;12.106;2023-04-15T14:09:29;2.00;;;1.90;;
45905;SDS011;31619;49.008;12.106;2023-04-15T14:11:54;1.92;;;1.83;;
45905;SDS011;31619;49.008;12.106;2023-04-15T14:14:20;1.65;;;1.65;;
45905;SDS011;31619;49.008;12.106;2023-04-15T14:16:46;1.50;;;1.50;;
45905;SDS011;31619;49.008;12.106;2023-04-15T14:19:12;1.83;;;1.75;;
45905;SDS011;31619;49.008;12.106;2023-04-15T14:21:38;1.70;;;1.60;;
45905;SDS011;31619;49.008;12.106;2023-04-15T14:24:04;1.98;;;1.88;;
45905;SDS011;31619;49.008;12.106;2023-04-15T14:26:29;1.60;;;1.50;;
45905;SDS011;31619;49.008;12.106;2023-04-15T14:28:55;1.42;;;1.42;;
45905;SDS011;31619;49.008;12.106;2023-04-15T14:31:21;1.63;;;1.52;;
45905;SDS011;31619;49.008;12.106;2023-04-15T14:33:46;1.50;;;1.50;;
45905;SDS011;31619;49.008;12.106;2023-04-15T14:36:12;1.33;;;1.33;;
45905;SDS011;31619;49.008;12.106;2023-04-15T14:38:37;1.65;;;1.63;;
45905;SDS011;31619;49.008;12.106;2023-04-15T14:41:06;1.60;;;1.60;;
45905;SDS011;31619;49.008;12.106;2023-04-15T14:43:32;1.48;;;1.48;;
45905;SDS011;31619;49.008;12.106;2023-04-15T14:45:58;1.77;;;1.58;;
45905;SDS011;31619;49.008;12.106;2023-04-15T14:48:24;1.48;;;1.48;;